< Cyclone 197205 1972 Season Cyclone 197207 >
Cyclone 197206 (BRONWYN)
General InformationTrack Information on Google Maps || ResourceGoogle EarthGE AnimationAtom FeedGeoJSON
Detalied Best Track (Time Zone = UTC)
Year Month Day Hour Lat. Long. Pressure (hPa) Wind (kt) Class Image Chart
1972 1 2 23 -16.1 138.7 1004 0 0 -- --
1972 1 3 02 -15.9 138.7 1003 0 0 -- --
1972 1 3 05 -15.7 138.8 1002 0 0 -- --
1972 1 3 08 -15.5 138.8 1002 0 0 -- --
1972 1 3 11 -15.3 138.8 1004 0 0 -- --
1972 1 3 14 -15.0 138.8 1003 0 0 -- --
1972 1 3 17 -14.7 138.9 1002 0 0 -- --
1972 1 3 20 -14.4 139.0 1004 0 0 -- --
1972 1 3 23 -14.1 139.0 1004 0 0 -- --
1972 1 4 02 -13.8 139.0 1004 0 0 -- --
1972 1 4 05 -13.4 139.1 1002 0 0 -- --
1972 1 4 08 -13.0 139.2 1000 0 0 -- --
1972 1 4 11 -12.5 139.3 1001 0 0 -- --
1972 1 4 14 -12.0 139.4 1001 0 0 -- --
1972 1 4 17 -11.5 139.5 1000 0 0 -- --
1972 1 4 20 -11.2 139.8 1000 0 0 -- --
1972 1 4 23 -11.2 140.0 1002 0 0 -- --
1972 1 5 02 -11.2 140.1 1000 0 0 -- --
1972 1 5 05 -11.2 140.2 997 0 0 -- --
1972 1 5 08 -11.2 140.3 997 0 0 -- --
1972 1 5 11 -11.3 140.4 998 0 0 -- --
1972 1 5 14 -11.3 140.5 998 0 0 -- --
1972 1 5 17 -11.3 140.6 996 0 0 -- --
1972 1 5 20 -11.4 140.7 996 0 0 -- --
1972 1 5 23 -11.4 140.8 996 0 0 -- --
1972 1 6 02 -11.4 141.0 994 0 0 -- --
1972 1 6 05 -11.5 141.2 993 0 0 -- --
1972 1 6 08 -11.5 141.4 993 0 0 -- --
1972 1 6 11 -11.6 141.6 993 0 0 -- --
1972 1 6 14 -11.6 141.6 995 0 0 -- --
1972 1 6 17 -11.6 141.7 994 0 0 -- --
1972 1 6 20 -11.7 141.8 994 0 0 -- --
1972 1 6 23 -11.7 141.9 996 0 0 -- --
1972 1 7 05 -13.6 141.5 993 0 0 -- --
1972 1 7 08 -13.8 141.7 993 0 0 -- --
1972 1 7 11 -13.6 141.8 993 0 0 -- --
1972 1 7 17 -15.1 141.8 993 0 0 -- --
1972 1 7 20 -15.8 142.4 994 0 0 -- --
1972 1 7 23 -15.9 142.1 998 0 0 -- --
1972 1 8 02 -16.2 142.3 994 0 0 -- --
1972 1 8 05 -16.5 142.5 994 0 0 -- --
1972 1 8 08 -16.8 142.7 994 0 0 -- --
1972 1 8 11 -17.1 142.8 995 0 0 -- --
1972 1 8 17 -17.7 142.9 995 0 0 -- --
1972 1 8 20 -18.0 142.9 996 0 0 -- --
1972 1 8 23 -18.2 143.0 995 0 0 -- --
1972 1 9 02 -18.4 143.0 996 0 0 -- --
1972 1 9 05 -18.7 142.9 995 0 0 -- --
1972 1 9 08 -18.9 142.8 995 0 0 -- --
1972 1 9 11 -19.1 142.6 995 0 0 -- --
1972 1 9 14 -19.3 142.3 995 0 0 -- --
1972 1 9 17 -19.5 142.0 994 0 0 -- --
1972 1 9 20 -19.7 141.7 994 0 0 -- --
1972 1 9 23 -20.0 141.5 996 0 0 -- --
1972 1 10 02 -20.2 141.3 994 0 0 -- --
1972 1 10 05 -20.4 141.1 995 0 0 -- --
1972 1 10 08 -20.6 140.9 996 0 0 -- --
1972 1 10 11 -20.9 140.7 998 0 0 -- --
1972 1 10 14 -21.2 140.7 997 0 0 -- --
1972 1 10 17 -21.5 140.8 995 0 0 -- --
1972 1 10 20 -21.8 140.8 997 0 0 -- --
1972 1 10 23 -22.1 140.9 998 0 0 -- --
1972 1 11 02 -22.4 140.9 997 0 0 -- --
1972 1 11 05 -22.7 141.0 996 0 0 -- --
1972 1 11 08 -23.0 141.2 997 0 0 -- --
1972 1 11 11 -23.3 141.4 998 0 0 -- --
1972 1 11 14 -23.7 141.7 997 0 0 -- --
1972 1 11 17 -24.1 142.0 997 0 0 -- --
1972 1 11 20 -24.5 142.3 997 0 0 -- --
1972 1 11 23 -25.0 142.6 997 0 0 -- --
< Cyclone 197205 1972 Season Cyclone 197207 >

Help